sensor_id;sensor_type;location;lat;lon;timestamp;P1;durP1;ratioP1;P2;durP2;ratioP2
31920;SDS011;66485;52.128;4.436;2023-04-25T00:00:53;2.30;;;0.88;;
31920;SDS011;66485;52.128;4.436;2023-04-25T00:03:18;2.25;;;0.63;;
31920;SDS011;66485;52.128;4.436;2023-04-25T00:05:46;2.22;;;0.85;;
31920;SDS011;66485;52.128;4.436;2023-04-25T00:08:11;2.17;;;0.77;;
31920;SDS011;66485;52.128;4.436;2023-04-25T00:10:36;2.95;;;1.10;;
31920;SDS011;66485;52.128;4.436;2023-04-25T00:13:02;3.15;;;1.20;;
31920;SDS011;66485;52.128;4.436;2023-04-25T00:15:27;3.63;;;1.10;;
31920;SDS011;66485;52.128;4.436;2023-04-25T00:17:55;2.75;;;0.80;;
31920;SDS011;66485;52.128;4.436;2023-04-25T00:20:21;2.45;;;0.95;;
31920;SDS011;66485;52.128;4.436;2023-04-25T00:22:48;2.42;;;0.90;;
31920;SDS011;66485;52.128;4.436;2023-04-25T00:25:14;2.15;;;1.23;;
31920;SDS011;66485;52.128;4.436;2023-04-25T00:27:39;3.55;;;1.17;;
31920;SDS011;66485;52.128;4.436;2023-04-25T00:30:04;3.35;;;1.00;;
31920;SDS011;66485;52.128;4.436;2023-04-25T00:32:30;2.22;;;0.80;;
31920;SDS011;66485;52.128;4.436;2023-04-25T00:34:56;3.78;;;1.00;;
31920;SDS011;66485;52.128;4.436;2023-04-25T00:37:22;4.18;;;0.98;;
31920;SDS011;66485;52.128;4.436;2023-04-25T00:39:48;3.05;;;0.90;;
31920;SDS011;66485;52.128;4.436;2023-04-25T00:42:13;1.88;;;0.70;;
31920;SDS011;66485;52.128;4.436;2023-04-25T00:44:39;3.00;;;1.00;;
31920;SDS011;66485;52.128;4.436;2023-04-25T00:47:04;2.15;;;0.93;;
31920;SDS011;66485;52.128;4.436;2023-04-25T00:49:30;2.42;;;0.90;;
31920;SDS011;66485;52.128;4.436;2023-04-25T00:51:55;1.08;;;0.63;;
31920;SDS011;66485;52.128;4.436;2023-04-25T00:54:21;1.98;;;0.82;;
31920;SDS011;66485;52.128;4.436;2023-04-25T00:56:47;1.55;;;0.82;;
31920;SDS011;66485;52.128;4.436;2023-04-25T00:59:12;2.95;;;1.08;;
31920;SDS011;66485;52.128;4.436;2023-04-25T01:01:38;1.80;;;0.65;;
31920;SDS011;66485;52.128;4.436;2023-04-25T01:04:04;2.63;;;1.05;;
31920;SDS011;66485;52.128;4.436;2023-04-25T01:06:30;2.30;;;0.90;;
31920;SDS011;66485;52.128;4.436;2023-04-25T01:08:56;3.13;;;1.15;;
31920;SDS011;66485;52.128;4.436;2023-04-25T01:11:22;2.70;;;1.08;;
31920;SDS011;66485;52.128;4.436;2023-04-25T01:13:48;2.40;;;0.80;;
31920;SDS011;66485;52.128;4.436;2023-04-25T01:16:13;2.58;;;0.90;;
31920;SDS011;66485;52.128;4.436;2023-04-25T01:18:38;2.92;;;1.40;;
31920;SDS011;66485;52.128;4.436;2023-04-25T01:21:09;2.42;;;1.17;;
31920;SDS011;66485;52.128;4.436;2023-04-25T01:23:35;2.22;;;0.73;;
31920;SDS011;66485;52.128;4.436;2023-04-25T01:26:05;4.75;;;1.20;;
31920;SDS011;66485;52.128;4.436;2023-04-25T01:28:33;2.80;;;0.85;;
31920;SDS011;66485;52.128;4.436;2023-04-25T01:30:59;3.50;;;1.00;;
31920;SDS011;66485;52.128;4.436;2023-04-25T01:33:24;3.65;;;1.20;;
31920;SDS011;66485;52.128;4.436;2023-04-25T01:35:50;1.88;;;0.80;;
31920;SDS011;66485;52.128;4.436;2023-04-25T01:38:15;2.67;;;0.90;;
31920;SDS011;66485;52.128;4.436;2023-04-25T01:40:40;2.00;;;1.00;;
31920;SDS011;66485;52.128;4.436;2023-04-25T01:43:06;3.95;;;0.70;;
31920;SDS011;66485;52.128;4.436;2023-04-25T01:45:36;3.13;;;1.13;;
31920;SDS011;66485;52.128;4.436;2023-04-25T01:48:04;2.05;;;0.80;;
31920;SDS011;66485;52.128;4.436;2023-04-25T01:50:30;3.63;;;0.90;;
31920;SDS011;66485;52.128;4.436;2023-04-25T01:52:55;2.85;;;1.00;;
31920;SDS011;66485;52.128;4.436;2023-04-25T01:55:21;4.35;;;1.00;;
31920;SDS011;66485;52.128;4.436;2023-04-25T01:57:47;2.55;;;0.82;;
31920;SDS011;66485;52.128;4.436;2023-04-25T02:00:12;3.08;;;0.80;;
31920;SDS011;66485;52.128;4.436;2023-04-25T02:02:38;1.73;;;0.77;;
31920;SDS011;66485;52.128;4.436;2023-04-25T02:05:03;2.53;;;0.85;;
31920;SDS011;66485;52.128;4.436;2023-04-25T02:07:29;2.85;;;0.98;;
31920;SDS011;66485;52.128;4.436;2023-04-25T02:09:54;1.95;;;0.75;;
31920;SDS011;66485;52.128;4.436;2023-04-25T02:12:19;2.47;;;0.82;;
31920;SDS011;66485;52.128;4.436;2023-04-25T02:14:45;1.52;;;0.80;;
31920;SDS011;66485;52.128;4.436;2023-04-25T02:17:10;3.58;;;0.85;;
31920;SDS011;66485;52.128;4.436;2023-04-25T02:19:37;2.92;;;0.60;;
31920;SDS011;66485;52.128;4.436;2023-04-25T02:22:02;1.75;;;0.88;;
31920;SDS011;66485;52.128;4.436;2023-04-25T02:24:28;3.33;;;1.10;;
31920;SDS011;66485;52.128;4.436;2023-04-25T02:26:53;3.67;;;0.80;;
31920;SDS011;66485;52.128;4.436;2023-04-25T02:29:20;2.90;;;0.90;;
31920;SDS011;66485;52.128;4.436;2023-04-25T02:31:45;3.63;;;0.90;;
31920;SDS011;66485;52.128;4.436;2023-04-25T02:34:11;3.03;;;0.80;;
31920;SDS011;66485;52.128;4.436;2023-04-25T02:36:36;4.50;;;1.65;;
31920;SDS011;66485;52.128;4.436;2023-04-25T02:39:01;3.47;;;1.20;;
31920;SDS011;66485;52.128;4.436;2023-04-25T02:41:28;2.42;;;0.88;;
31920;SDS011;66485;52.128;4.436;2023-04-25T02:43:53;2.33;;;0.80;;
31920;SDS011;66485;52.128;4.436;2023-04-25T02:46:20;4.70;;;0.88;;
31920;SDS011;66485;52.128;4.436;2023-04-25T02:48:45;3.08;;;0.90;;
31920;SDS011;66485;52.128;4.436;2023-04-25T02:51:10;2.00;;;0.70;;
31920;SDS011;66485;52.128;4.436;2023-04-25T02:53:36;3.83;;;1.20;;
31920;SDS011;66485;52.128;4.436;2023-04-25T02:56:01;4.70;;;1.10;;
31920;SDS011;66485;52.128;4.436;2023-04-25T02:58:27;3.80;;;0.90;;
31920;SDS011;66485;52.128;4.436;2023-04-25T03:00:52;2.42;;;1.02;;
31920;SDS011;66485;52.128;4.436;2023-04-25T03:03:18;4.05;;;0.90;;
31920;SDS011;66485;52.128;4.436;2023-04-25T03:05:46;4.57;;;1.10;;
31920;SDS011;66485;52.128;4.436;2023-04-25T03:08:11;2.10;;;0.95;;
31920;SDS011;66485;52.128;4.436;2023-04-25T03:10:37;2.78;;;1.00;;
31920;SDS011;66485;52.128;4.436;2023-04-25T03:13:03;2.30;;;0.90;;
31920;SDS011;66485;52.128;4.436;2023-04-25T03:15:28;3.42;;;1.05;;
31920;SDS011;66485;52.128;4.436;2023-04-25T03:17:54;1.38;;;0.60;;
31920;SDS011;66485;52.128;4.436;2023-04-25T03:20:19;3.00;;;0.70;;
31920;SDS011;66485;52.128;4.436;2023-04-25T03:22:45;2.55;;;1.00;;
31920;SDS011;66485;52.128;4.436;2023-04-25T03:25:10;2.40;;;0.85;;
31920;SDS011;66485;52.128;4.436;2023-04-25T03:27:35;3.47;;;0.88;;
31920;SDS011;66485;52.128;4.436;2023-04-25T03:30:01;3.97;;;0.88;;
31920;SDS011;66485;52.128;4.436;2023-04-25T03:32:26;1.02;;;0.70;;
31920;SDS011;66485;52.128;4.436;2023-04-25T03:34:52;3.08;;;0.90;;
31920;SDS011;66485;52.128;4.436;2023-04-25T03:37:17;4.32;;;0.80;;
31920;SDS011;66485;52.128;4.436;2023-04-25T03:39:42;1.77;;;0.73;;
31920;SDS011;66485;52.128;4.436;2023-04-25T03:42:07;2.85;;;0.82;;
31920;SDS011;66485;52.128;4.436;2023-04-25T03:44:33;1.80;;;0.95;;
31920;SDS011;66485;52.128;4.436;2023-04-25T03:46:58;2.67;;;0.90;;
31920;SDS011;66485;52.128;4.436;2023-04-25T03:49:24;2.15;;;0.70;;
31920;SDS011;66485;52.128;4.436;2023-04-25T03:51:49;3.33;;;0.82;;
31920;SDS011;66485;52.128;4.436;2023-04-25T03:54:15;2.38;;;0.80;;
31920;SDS011;66485;52.128;4.436;2023-04-25T03:56:40;3.40;;;0.88;;
31920;SDS011;66485;52.128;4.436;2023-04-25T03:59:05;2.97;;;0.80;;
31920;SDS011;66485;52.128;4.436;2023-04-25T04:01:31;2.00;;;0.75;;
31920;SDS011;66485;52.128;4.436;2023-04-25T04:03:56;1.88;;;0.90;;
31920;SDS011;66485;52.128;4.436;2023-04-25T04:06:22;1.80;;;0.90;;
31920;SDS011;66485;52.128;4.436;2023-04-25T04:08:47;3.88;;;0.90;;
31920;SDS011;66485;52.128;4.436;2023-04-25T04:11:12;1.80;;;1.00;;
31920;SDS011;66485;52.128;4.436;2023-04-25T04:13:38;0.93;;;0.65;;
31920;SDS011;66485;52.128;4.436;2023-04-25T04:16:03;3.17;;;0.90;;
31920;SDS011;66485;52.128;4.436;2023-04-25T04:18:29;1.33;;;0.70;;
31920;SDS011;66485;52.128;4.436;2023-04-25T04:20:55;1.83;;;0.80;;
31920;SDS011;66485;52.128;4.436;2023-04-25T04:23:20;1.95;;;0.75;;
31920;SDS011;66485;52.128;4.436;2023-04-25T04:25:47;2.78;;;0.70;;
31920;SDS011;66485;52.128;4.436;2023-04-25T04:28:13;1.13;;;0.70;;
31920;SDS011;66485;52.128;4.436;2023-04-25T04:30:38;2.08;;;0.85;;
31920;SDS011;66485;52.128;4.436;2023-04-25T04:33:06;1.40;;;0.70;;
31920;SDS011;66485;52.128;4.436;2023-04-25T04:35:32;1.48;;;0.65;;
31920;SDS011;66485;52.128;4.436;2023-04-25T04:37:57;1.85;;;0.85;;
31920;SDS011;66485;52.128;4.436;2023-04-25T04:40:22;1.77;;;0.65;;
31920;SDS011;66485;52.128;4.436;2023-04-25T04:42:48;1.80;;;0.65;;
31920;SDS011;66485;52.128;4.436;2023-04-25T04:45:14;3.88;;;1.10;;
31920;SDS011;66485;52.128;4.436;2023-04-25T04:47:41;2.78;;;1.05;;
31920;SDS011;66485;52.128;4.436;2023-04-25T04:50:07;2.28;;;0.65;;
31920;SDS011;66485;52.128;4.436;2023-04-25T04:52:36;1.65;;;0.60;;
31920;SDS011;66485;52.128;4.436;2023-04-25T04:55:02;2.28;;;0.88;;
31920;SDS011;66485;52.128;4.436;2023-04-25T04:57:29;2.22;;;0.68;;
31920;SDS011;66485;52.128;4.436;2023-04-25T04:59:54;2.83;;;0.70;;
31920;SDS011;66485;52.128;4.436;2023-04-25T05:02:20;2.35;;;0.70;;
31920;SDS011;66485;52.128;4.436;2023-04-25T05:04:45;1.88;;;0.70;;
31920;SDS011;66485;52.128;4.436;2023-04-25T05:07:10;1.70;;;0.70;;
31920;SDS011;66485;52.128;4.436;2023-04-25T05:09:36;2.05;;;0.60;;
31920;SDS011;66485;52.128;4.436;2023-04-25T05:12:01;3.10;;;0.80;;
31920;SDS011;66485;52.128;4.436;2023-04-25T05:14:27;1.23;;;0.50;;
31920;SDS011;66485;52.128;4.436;2023-04-25T05:16:52;2.10;;;0.68;;
31920;SDS011;66485;52.128;4.436;2023-04-25T05:19:17;1.58;;;0.60;;
31920;SDS011;66485;52.128;4.436;2023-04-25T05:21:43;1.52;;;0.65;;
31920;SDS011;66485;52.128;4.436;2023-04-25T05:24:08;2.65;;;0.70;;
31920;SDS011;66485;52.128;4.436;2023-04-25T05:26:33;2.15;;;0.70;;
31920;SDS011;66485;52.128;4.436;2023-04-25T05:28:59;2.13;;;0.80;;
31920;SDS011;66485;52.128;4.436;2023-04-25T05:31:25;2.22;;;0.70;;
31920;SDS011;66485;52.128;4.436;2023-04-25T05:33:50;1.95;;;0.77;;
31920;SDS011;66485;52.128;4.436;2023-04-25T05:36:16;3.25;;;0.80;;
31920;SDS011;66485;52.128;4.436;2023-04-25T05:38:41;1.83;;;0.60;;
31920;SDS011;66485;52.128;4.436;2023-04-25T05:41:07;3.05;;;0.70;;
31920;SDS011;66485;52.128;4.436;2023-04-25T05:43:32;2.30;;;0.70;;
31920;SDS011;66485;52.128;4.436;2023-04-25T05:45:58;2.03;;;0.80;;
31920;SDS011;66485;52.128;4.436;2023-04-25T05:48:23;1.58;;;0.70;;
31920;SDS011;66485;52.128;4.436;2023-04-25T05:50:48;1.80;;;0.80;;
31920;SDS011;66485;52.128;4.436;2023-04-25T05:53:14;5.28;;;0.80;;
31920;SDS011;66485;52.128;4.436;2023-04-25T05:55:39;2.47;;;1.10;;
31920;SDS011;66485;52.128;4.436;2023-04-25T05:58:05;2.42;;;0.90;;
31920;SDS011;66485;52.128;4.436;2023-04-25T06:00:32;2.28;;;0.80;;
31920;SDS011;66485;52.128;4.436;2023-04-25T06:02:57;0.73;;;0.60;;
31920;SDS011;66485;52.128;4.436;2023-04-25T06:05:22;1.00;;;0.60;;
31920;SDS011;66485;52.128;4.436;2023-04-25T06:07:48;1.45;;;0.80;;
31920;SDS011;66485;52.128;4.436;2023-04-25T06:10:13;2.55;;;0.70;;
31920;SDS011;66485;52.128;4.436;2023-04-25T06:12:38;1.10;;;0.52;;
31920;SDS011;66485;52.128;4.436;2023-04-25T06:15:04;2.20;;;0.80;;
31920;SDS011;66485;52.128;4.436;2023-04-25T06:17:30;2.42;;;0.60;;
31920;SDS011;66485;52.128;4.436;2023-04-25T06:19:55;1.47;;;0.60;;
31920;SDS011;66485;52.128;4.436;2023-04-25T06:22:21;1.70;;;0.63;;
31920;SDS011;66485;52.128;4.436;2023-04-25T06:24:46;1.17;;;0.50;;
31920;SDS011;66485;52.128;4.436;2023-04-25T06:27:11;3.55;;;0.82;;
31920;SDS011;66485;52.128;4.436;2023-04-25T06:29:36;2.65;;;0.75;;
31920;SDS011;66485;52.128;4.436;2023-04-25T06:32:02;1.05;;;0.55;;
31920;SDS011;66485;52.128;4.436;2023-04-25T06:34:27;1.85;;;0.50;;
31920;SDS011;66485;52.128;4.436;2023-04-25T06:36:52;1.70;;;0.60;;
31920;SDS011;66485;52.128;4.436;2023-04-25T06:39:18;0.77;;;0.47;;
31920;SDS011;66485;52.128;4.436;2023-04-25T06:41:45;1.27;;;0.50;;
31920;SDS011;66485;52.128;4.436;2023-04-25T06:44:10;2.40;;;0.50;;
31920;SDS011;66485;52.128;4.436;2023-04-25T06:46:35;1.17;;;0.50;;
31920;SDS011;66485;52.128;4.436;2023-04-25T06:49:01;1.33;;;0.60;;
31920;SDS011;66485;52.128;4.436;2023-04-25T06:51:26;1.13;;;0.47;;
31920;SDS011;66485;52.128;4.436;2023-04-25T06:53:54;1.42;;;0.75;;
31920;SDS011;66485;52.128;4.436;2023-04-25T06:56:19;1.92;;;0.70;;
31920;SDS011;66485;52.128;4.436;2023-04-25T06:58:46;1.55;;;0.52;;
31920;SDS011;66485;52.128;4.436;2023-04-25T07:01:11;1.20;;;0.50;;
31920;SDS011;66485;52.128;4.436;2023-04-25T07:03:36;2.63;;;0.70;;
31920;SDS011;66485;52.128;4.436;2023-04-25T07:06:03;1.63;;;0.63;;
31920;SDS011;66485;52.128;4.436;2023-04-25T07:08:28;2.33;;;0.63;;
31920;SDS011;66485;52.128;4.436;2023-04-25T07:10:54;1.55;;;0.63;;
31920;SDS011;66485;52.128;4.436;2023-04-25T07:13:20;1.90;;;0.60;;
31920;SDS011;66485;52.128;4.436;2023-04-25T07:15:45;1.25;;;0.50;;
31920;SDS011;66485;52.128;4.436;2023-04-25T07:18:13;2.60;;;0.70;;
31920;SDS011;66485;52.128;4.436;2023-04-25T07:20:38;2.10;;;0.57;;
31920;SDS011;66485;52.128;4.436;2023-04-25T07:23:03;1.42;;;0.47;;
31920;SDS011;66485;52.128;4.436;2023-04-25T07:25:29;1.35;;;0.50;;
31920;SDS011;66485;52.128;4.436;2023-04-25T07:27:55;2.45;;;1.00;;
31920;SDS011;66485;52.128;4.436;2023-04-25T07:30:20;3.28;;;0.93;;
31920;SDS011;66485;52.128;4.436;2023-04-25T07:32:46;0.95;;;0.50;;
31920;SDS011;66485;52.128;4.436;2023-04-25T07:35:12;2.35;;;0.75;;
31920;SDS011;66485;52.128;4.436;2023-04-25T07:37:37;1.58;;;0.75;;
31920;SDS011;66485;52.128;4.436;2023-04-25T07:40:03;3.55;;;1.10;;
31920;SDS011;66485;52.128;4.436;2023-04-25T07:42:29;3.53;;;1.50;;
31920;SDS011;66485;52.128;4.436;2023-04-25T07:44:54;6.35;;;1.70;;
31920;SDS011;66485;52.128;4.436;2023-04-25T07:47:20;7.47;;;1.80;;
31920;SDS011;66485;52.128;4.436;2023-04-25T07:49:46;10.80;;;3.35;;
31920;SDS011;66485;52.128;4.436;2023-04-25T07:52:12;7.07;;;2.38;;
31920;SDS011;66485;52.128;4.436;2023-04-25T07:54:37;9.52;;;3.03;;
31920;SDS011;66485;52.128;4.436;2023-04-25T07:57:03;10.23;;;3.10;;
31920;SDS011;66485;52.128;4.436;2023-04-25T07:59:28;6.45;;;2.65;;
31920;SDS011;66485;52.128;4.436;2023-04-25T08:01:53;9.98;;;2.80;;
31920;SDS011;66485;52.128;4.436;2023-04-25T08:04:19;14.00;;;3.95;;
31920;SDS011;66485;52.128;4.436;2023-04-25T08:06:44;11.98;;;3.50;;
31920;SDS011;66485;52.128;4.436;2023-04-25T08:09:10;11.65;;;3.30;;
31920;SDS011;66485;52.128;4.436;2023-04-25T08:11:36;9.18;;;2.78;;
31920;SDS011;66485;52.128;4.436;2023-04-25T08:14:02;13.38;;;3.58;;
31920;SDS011;66485;52.128;4.436;2023-04-25T08:16:27;7.90;;;3.13;;
31920;SDS011;66485;52.128;4.436;2023-04-25T08:18:53;9.93;;;3.13;;
31920;SDS011;66485;52.128;4.436;2023-04-25T08:21:18;10.02;;;3.00;;
31920;SDS011;66485;52.128;4.436;2023-04-25T08:23:44;12.32;;;3.22;;
31920;SDS011;66485;52.128;4.436;2023-04-25T08:26:09;10.55;;;3.00;;
31920;SDS011;66485;52.128;4.436;2023-04-25T08:28:35;8.10;;;2.88;;
31920;SDS011;66485;52.128;4.436;2023-04-25T08:31:00;6.93;;;2.47;;
31920;SDS011;66485;52.128;4.436;2023-04-25T08:33:25;9.30;;;2.53;;
31920;SDS011;66485;52.128;4.436;2023-04-25T08:35:51;6.90;;;2.42;;
31920;SDS011;66485;52.128;4.436;2023-04-25T08:38:16;7.65;;;2.55;;
31920;SDS011;66485;52.128;4.436;2023-04-25T08:40:43;7.50;;;2.33;;
31920;SDS011;66485;52.128;4.436;2023-04-25T08:43:09;7.03;;;2.20;;
31920;SDS011;66485;52.128;4.436;2023-04-25T08:45:36;6.00;;;2.25;;
31920;SDS011;66485;52.128;4.436;2023-04-25T08:48:04;4.80;;;2.20;;
31920;SDS011;66485;52.128;4.436;2023-04-25T08:50:32;6.28;;;1.85;;
31920;SDS011;66485;52.128;4.436;2023-04-25T08:52:58;6.63;;;1.98;;
31920;SDS011;66485;52.128;4.436;2023-04-25T08:55:28;4.43;;;1.73;;
31920;SDS011;66485;52.128;4.436;2023-04-25T08:57:55;5.35;;;2.05;;
31920;SDS011;66485;52.128;4.436;2023-04-25T09:00:21;5.40;;;1.90;;
31920;SDS011;66485;52.128;4.436;2023-04-25T09:02:47;8.32;;;1.85;;
31920;SDS011;66485;52.128;4.436;2023-04-25T09:05:13;4.95;;;1.63;;
31920;SDS011;66485;52.128;4.436;2023-04-25T09:07:39;3.05;;;1.30;;
31920;SDS011;66485;52.128;4.436;2023-04-25T09:10:04;4.05;;;1.20;;
31920;SDS011;66485;52.128;4.436;2023-04-25T09:12:30;4.50;;;1.45;;
31920;SDS011;66485;52.128;4.436;2023-04-25T09:15:09;5.05;;;1.48;;
31920;SDS011;66485;52.128;4.436;2023-04-25T09:17:36;5.22;;;1.60;;
31920;SDS011;66485;52.128;4.436;2023-04-25T09:20:14;3.95;;;1.55;;
31920;SDS011;66485;52.128;4.436;2023-04-25T09:22:40;7.30;;;1.13;;
31920;SDS011;66485;52.128;4.436;2023-04-25T09:27:34;3.92;;;1.55;;
31920;SDS011;66485;52.128;4.436;2023-04-25T09:30:00;4.78;;;1.13;;
31920;SDS011;66485;52.128;4.436;2023-04-25T09:32:26;3.95;;;1.20;;
31920;SDS011;66485;52.128;4.436;2023-04-25T09:34:52;3.75;;;1.15;;
31920;SDS011;66485;52.128;4.436;2023-04-25T09:37:26;3.15;;;1.00;;
31920;SDS011;66485;52.128;4.436;2023-04-25T09:39:54;3.75;;;1.05;;
31920;SDS011;66485;52.128;4.436;2023-04-25T09:42:30;2.78;;;1.00;;
31920;SDS011;66485;52.128;4.436;2023-04-25T09:44:57;4.57;;;1.10;;
31920;SDS011;66485;52.128;4.436;2023-04-25T09:47:25;2.63;;;1.00;;
31920;SDS011;66485;52.128;4.436;2023-04-25T09:49:52;2.13;;;0.95;;
31920;SDS011;66485;52.128;4.436;2023-04-25T09:52:19;4.20;;;1.20;;
31920;SDS011;66485;52.128;4.436;2023-04-25T09:54:46;3.38;;;1.13;;
31920;SDS011;66485;52.128;4.436;2023-04-25T09:59:49;3.55;;;1.05;;
31920;SDS011;66485;52.128;4.436;2023-04-25T10:02:16;2.92;;;0.98;;
31920;SDS011;66485;52.128;4.436;2023-04-25T10:04:44;4.20;;;1.13;;
31920;SDS011;66485;52.128;4.436;2023-04-25T10:07:13;2.03;;;0.80;;
31920;SDS011;66485;52.128;4.436;2023-04-25T10:09:40;5.53;;;1.15;;
31920;SDS011;66485;52.128;4.436;2023-04-25T10:12:07;2.67;;;0.95;;
31920;SDS011;66485;52.128;4.436;2023-04-25T10:14:33;3.53;;;1.20;;
31920;SDS011;66485;52.128;4.436;2023-04-25T10:16:59;3.00;;;1.10;;
31920;SDS011;66485;52.128;4.436;2023-04-25T10:19:25;2.83;;;1.00;;
31920;SDS011;66485;52.128;4.436;2023-04-25T10:24:28;4.72;;;0.95;;
31920;SDS011;66485;52.128;4.436;2023-04-25T10:26:53;5.18;;;0.70;;
31920;SDS011;66485;52.128;4.436;2023-04-25T10:29:22;3.38;;;0.88;;
31920;SDS011;66485;52.128;4.436;2023-04-25T10:31:49;2.97;;;0.90;;
31920;SDS011;66485;52.128;4.436;2023-04-25T10:34:15;1.73;;;0.70;;
31920;SDS011;66485;52.128;4.436;2023-04-25T10:36:41;3.47;;;1.00;;
31920;SDS011;66485;52.128;4.436;2023-04-25T10:39:07;3.22;;;1.00;;
31920;SDS011;66485;52.128;4.436;2023-04-25T10:41:46;5.35;;;0.90;;
31920;SDS011;66485;52.128;4.436;2023-04-25T10:44:13;4.80;;;0.95;;
31920;SDS011;66485;52.128;4.436;2023-04-25T10:46:39;5.57;;;1.10;;
31920;SDS011;66485;52.128;4.436;2023-04-25T10:49:04;3.13;;;0.82;;
31920;SDS011;66485;52.128;4.436;2023-04-25T10:51:33;4.38;;;0.95;;
31920;SDS011;66485;52.128;4.436;2023-04-25T10:54:06;4.45;;;0.93;;
31920;SDS011;66485;52.128;4.436;2023-04-25T10:59:08;2.50;;;0.93;;
31920;SDS011;66485;52.128;4.436;2023-04-25T11:01:40;4.00;;;1.30;;
31920;SDS011;66485;52.128;4.436;2023-04-25T11:04:32;6.68;;;1.00;;
31920;SDS011;66485;52.128;4.436;2023-04-25T11:09:48;2.00;;;0.90;;
31920;SDS011;66485;52.128;4.436;2023-04-25T11:12:14;4.60;;;0.68;;
31920;SDS011;66485;52.128;4.436;2023-04-25T11:14:39;4.00;;;0.88;;
31920;SDS011;66485;52.128;4.436;2023-04-25T11:17:05;8.98;;;0.90;;
31920;SDS011;66485;52.128;4.436;2023-04-25T11:19:31;5.82;;;0.82;;
31920;SDS011;66485;52.128;4.436;2023-04-25T11:21:57;6.55;;;0.82;;
31920;SDS011;66485;52.128;4.436;2023-04-25T11:24:33;4.57;;;0.80;;
31920;SDS011;66485;52.128;4.436;2023-04-25T11:27:00;2.25;;;0.77;;
31920;SDS011;66485;52.128;4.436;2023-04-25T11:29:30;7.57;;;1.25;;
31920;SDS011;66485;52.128;4.436;2023-04-25T11:31:56;4.22;;;1.00;;
31920;SDS011;66485;52.128;4.436;2023-04-25T11:34:23;4.57;;;0.98;;
31920;SDS011;66485;52.128;4.436;2023-04-25T11:36:49;3.67;;;0.93;;
31920;SDS011;66485;52.128;4.436;2023-04-25T11:39:15;6.22;;;0.90;;
31920;SDS011;66485;52.128;4.436;2023-04-25T11:41:41;3.15;;;0.80;;
31920;SDS011;66485;52.128;4.436;2023-04-25T11:44:07;4.20;;;0.70;;
31920;SDS011;66485;52.128;4.436;2023-04-25T11:46:35;4.07;;;0.80;;
31920;SDS011;66485;52.128;4.436;2023-04-25T11:49:00;2.92;;;0.90;;
31920;SDS011;66485;52.128;4.436;2023-04-25T11:51:26;3.97;;;1.05;;
31920;SDS011;66485;52.128;4.436;2023-04-25T11:53:52;5.38;;;0.80;;
31920;SDS011;66485;52.128;4.436;2023-04-25T11:56:17;3.40;;;1.60;;
31920;SDS011;66485;52.128;4.436;2023-04-25T11:58:58;2.65;;;0.98;;
31920;SDS011;66485;52.128;4.436;2023-04-25T12:04:15;3.05;;;0.80;;
31920;SDS011;66485;52.128;4.436;2023-04-25T12:06:42;3.72;;;1.33;;
31920;SDS011;66485;52.128;4.436;2023-04-25T12:09:11;3.78;;;0.90;;
31920;SDS011;66485;52.128;4.436;2023-04-25T12:11:41;2.17;;;0.82;;
31920;SDS011;66485;52.128;4.436;2023-04-25T12:14:08;4.15;;;0.90;;
31920;SDS011;66485;52.128;4.436;2023-04-25T12:16:41;2.20;;;0.65;;
31920;SDS011;66485;52.128;4.436;2023-04-25T12:19:07;2.25;;;0.70;;
31920;SDS011;66485;52.128;4.436;2023-04-25T12:21:32;2.00;;;0.70;;
31920;SDS011;66485;52.128;4.436;2023-04-25T12:24:14;3.55;;;0.90;;
31920;SDS011;66485;52.128;4.436;2023-04-25T12:26:48;3.70;;;1.00;;
31920;SDS011;66485;52.128;4.436;2023-04-25T12:29:21;1.45;;;0.70;;
31920;SDS011;66485;52.128;4.436;2023-04-25T12:31:49;2.22;;;0.65;;
31920;SDS011;66485;52.128;4.436;2023-04-25T12:34:15;2.80;;;0.88;;
31920;SDS011;66485;52.128;4.436;2023-04-25T12:36:41;3.00;;;0.80;;
31920;SDS011;66485;52.128;4.436;2023-04-25T12:39:06;3.90;;;0.93;;
31920;SDS011;66485;52.128;4.436;2023-04-25T12:41:32;2.00;;;0.70;;
31920;SDS011;66485;52.128;4.436;2023-04-25T12:43:58;3.08;;;1.08;;
31920;SDS011;66485;52.128;4.436;2023-04-25T12:46:24;6.78;;;1.02;;
31920;SDS011;66485;52.128;4.436;2023-04-25T12:48:49;3.15;;;1.15;;
31920;SDS011;66485;52.128;4.436;2023-04-25T12:51:14;4.22;;;0.95;;
31920;SDS011;66485;52.128;4.436;2023-04-25T12:53:40;5.13;;;1.50;;
31920;SDS011;66485;52.128;4.436;2023-04-25T12:56:06;5.55;;;1.02;;
31920;SDS011;66485;52.128;4.436;2023-04-25T12:58:35;6.47;;;0.95;;
31920;SDS011;66485;52.128;4.436;2023-04-25T13:01:01;3.25;;;0.80;;
31920;SDS011;66485;52.128;4.436;2023-04-25T13:03:26;2.15;;;0.77;;
31920;SDS011;66485;52.128;4.436;2023-04-25T13:05:52;2.08;;;0.70;;
31920;SDS011;66485;52.128;4.436;2023-04-25T13:08:18;5.93;;;1.25;;
31920;SDS011;66485;52.128;4.436;2023-04-25T13:10:43;2.90;;;0.95;;
31920;SDS011;66485;52.128;4.436;2023-04-25T13:13:09;5.40;;;0.82;;
31920;SDS011;66485;52.128;4.436;2023-04-25T13:15:34;7.05;;;1.13;;
31920;SDS011;66485;52.128;4.436;2023-04-25T13:18:00;5.00;;;0.90;;
31920;SDS011;66485;52.128;4.436;2023-04-25T13:20:25;12.48;;;1.00;;
31920;SDS011;66485;52.128;4.436;2023-04-25T13:22:51;4.18;;;0.98;;
31920;SDS011;66485;52.128;4.436;2023-04-25T13:25:16;6.03;;;0.90;;
31920;SDS011;66485;52.128;4.436;2023-04-25T13:27:41;4.38;;;0.80;;
31920;SDS011;66485;52.128;4.436;2023-04-25T13:30:09;4.82;;;1.15;;
31920;SDS011;66485;52.128;4.436;2023-04-25T13:32:35;4.95;;;1.20;;
31920;SDS011;66485;52.128;4.436;2023-04-25T13:35:02;4.53;;;1.30;;
31920;SDS011;66485;52.128;4.436;2023-04-25T13:37:28;3.55;;;0.82;;
31920;SDS011;66485;52.128;4.436;2023-04-25T13:39:55;5.88;;;0.93;;
31920;SDS011;66485;52.128;4.436;2023-04-25T13:42:21;3.30;;;0.80;;
31920;SDS011;66485;52.128;4.436;2023-04-25T13:44:47;5.70;;;1.10;;
31920;SDS011;66485;52.128;4.436;2023-04-25T13:47:12;3.88;;;0.80;;
31920;SDS011;66485;52.128;4.436;2023-04-25T13:49:37;3.05;;;1.00;;
31920;SDS011;66485;52.128;4.436;2023-04-25T13:52:02;5.27;;;0.97;;
31920;SDS011;66485;52.128;4.436;2023-04-25T13:54:28;3.67;;;0.90;;
31920;SDS011;66485;52.128;4.436;2023-04-25T13:56:53;8.40;;;1.27;;
31920;SDS011;66485;52.128;4.436;2023-04-25T13:59:23;5.57;;;1.08;;
31920;SDS011;66485;52.128;4.436;2023-04-25T14:01:49;6.13;;;0.70;;
31920;SDS011;66485;52.128;4.436;2023-04-25T14:04:14;2.22;;;0.90;;
31920;SDS011;66485;52.128;4.436;2023-04-25T14:06:40;5.15;;;0.95;;
31920;SDS011;66485;52.128;4.436;2023-04-25T14:09:06;4.05;;;0.82;;
31920;SDS011;66485;52.128;4.436;2023-04-25T14:11:35;3.67;;;0.70;;
31920;SDS011;66485;52.128;4.436;2023-04-25T14:14:00;5.63;;;1.00;;
31920;SDS011;66485;52.128;4.436;2023-04-25T14:16:26;4.00;;;0.77;;
31920;SDS011;66485;52.128;4.436;2023-04-25T14:18:51;4.32;;;0.82;;
31920;SDS011;66485;52.128;4.436;2023-04-25T14:21:17;7.00;;;1.13;;
31920;SDS011;66485;52.128;4.436;2023-04-25T14:23:42;3.83;;;0.68;;
31920;SDS011;66485;52.128;4.436;2023-04-25T14:26:07;5.87;;;1.10;;
31920;SDS011;66485;52.128;4.436;2023-04-25T14:28:36;5.63;;;0.70;;
31920;SDS011;66485;52.128;4.436;2023-04-25T14:31:02;10.18;;;0.95;;
31920;SDS011;66485;52.128;4.436;2023-04-25T14:33:27;5.50;;;0.88;;
31920;SDS011;66485;52.128;4.436;2023-04-25T14:35:52;6.55;;;1.10;;
31920;SDS011;66485;52.128;4.436;2023-04-25T14:38:18;4.18;;;1.00;;
31920;SDS011;66485;52.128;4.436;2023-04-25T14:40:48;6.25;;;0.95;;
31920;SDS011;66485;52.128;4.436;2023-04-25T14:43:13;4.63;;;1.05;;
31920;SDS011;66485;52.128;4.436;2023-04-25T14:45:38;5.85;;;1.10;;
31920;SDS011;66485;52.128;4.436;2023-04-25T14:48:04;3.17;;;1.00;;
31920;SDS011;66485;52.128;4.436;2023-04-25T14:50:29;5.55;;;0.95;;
31920;SDS011;66485;52.128;4.436;2023-04-25T14:52:55;5.88;;;0.90;;
31920;SDS011;66485;52.128;4.436;2023-04-25T14:55:23;4.65;;;0.85;;
31920;SDS011;66485;52.128;4.436;2023-04-25T14:57:49;3.35;;;0.73;;